sensor_id;sensor_type;location;lat;lon;timestamp;P1;durP1;ratioP1;P2;durP2;ratioP2
5961;SDS011;3007;50.770;0.250;2022-10-15T00:01:25;12.37;;;9.30;;
5961;SDS011;3007;50.770;0.250;2022-10-15T00:03:52;13.20;;;9.77;;
5961;SDS011;3007;50.770;0.250;2022-10-15T00:06:19;14.27;;;10.43;;
5961;SDS011;3007;50.770;0.250;2022-10-15T00:08:47;16.17;;;9.53;;
5961;SDS011;3007;50.770;0.250;2022-10-15T00:11:16;16.60;;;9.53;;
5961;SDS011;3007;50.770;0.250;2022-10-15T00:13:45;12.63;;;8.70;;
5961;SDS011;3007;50.770;0.250;2022-10-15T00:16:13;12.30;;;8.80;;
5961;SDS011;3007;50.770;0.250;2022-10-15T00:18:41;14.60;;;8.77;;
5961;SDS011;3007;50.770;0.250;2022-10-15T00:21:09;8.70;;;7.30;;
5961;SDS011;3007;50.770;0.250;2022-10-15T00:23:37;11.63;;;7.50;;
5961;SDS011;3007;50.770;0.250;2022-10-15T00:26:04;10.23;;;7.10;;
5961;SDS011;3007;50.770;0.250;2022-10-15T00:28:34;6.67;;;5.53;;
5961;SDS011;3007;50.770;0.250;2022-10-15T00:31:02;5.80;;;4.17;;
5961;SDS011;3007;50.770;0.250;2022-10-15T00:33:30;6.40;;;3.73;;
5961;SDS011;3007;50.770;0.250;2022-10-15T00:35:57;4.53;;;3.60;;
5961;SDS011;3007;50.770;0.250;2022-10-15T00:38:28;7.70;;;2.57;;
5961;SDS011;3007;50.770;0.250;2022-10-15T00:40:56;3.10;;;2.13;;
5961;SDS011;3007;50.770;0.250;2022-10-15T00:43:37;2.00;;;1.73;;
5961;SDS011;3007;50.770;0.250;2022-10-15T00:46:14;3.37;;;1.83;;
5961;SDS011;3007;50.770;0.250;2022-10-15T00:48:43;3.10;;;1.60;;
5961;SDS011;3007;50.770;0.250;2022-10-15T00:51:13;2.20;;;1.27;;
5961;SDS011;3007;50.770;0.250;2022-10-15T00:53:42;5.10;;;1.40;;
5961;SDS011;3007;50.770;0.250;2022-10-15T00:56:10;2.73;;;1.30;;
5961;SDS011;3007;50.770;0.250;2022-10-15T00:58:39;6.63;;;1.60;;
5961;SDS011;3007;50.770;0.250;2022-10-15T01:01:06;2.10;;;1.20;;
5961;SDS011;3007;50.770;0.250;2022-10-15T01:03:33;3.63;;;1.43;;
5961;SDS011;3007;50.770;0.250;2022-10-15T01:06:00;2.43;;;1.17;;
5961;SDS011;3007;50.770;0.250;2022-10-15T01:08:29;4.17;;;1.43;;
5961;SDS011;3007;50.770;0.250;2022-10-15T01:10:59;1.17;;;1.00;;
5961;SDS011;3007;50.770;0.250;2022-10-15T01:13:39;3.80;;;1.30;;
5961;SDS011;3007;50.770;0.250;2022-10-15T01:16:15;4.27;;;2.00;;
5961;SDS011;3007;50.770;0.250;2022-10-15T01:18:50;2.43;;;1.60;;
5961;SDS011;3007;50.770;0.250;2022-10-15T01:21:24;1.50;;;1.00;;
5961;SDS011;3007;50.770;0.250;2022-10-15T01:24:10;3.00;;;1.60;;
5961;SDS011;3007;50.770;0.250;2022-10-15T01:27:18;4.20;;;1.10;;
5961;SDS011;3007;50.770;0.250;2022-10-15T01:32:52;3.53;;;1.10;;
5961;SDS011;3007;50.770;0.250;2022-10-15T01:35:38;3.10;;;1.20;;
5961;SDS011;3007;50.770;0.250;2022-10-15T01:38:24;3.83;;;1.87;;
5961;SDS011;3007;50.770;0.250;2022-10-15T01:40:59;6.73;;;2.83;;
5961;SDS011;3007;50.770;0.250;2022-10-15T01:43:34;8.20;;;2.27;;
5961;SDS011;3007;50.770;0.250;2022-10-15T01:46:06;3.10;;;1.30;;
5961;SDS011;3007;50.770;0.250;2022-10-15T01:48:39;3.53;;;1.70;;
5961;SDS011;3007;50.770;0.250;2022-10-15T01:51:06;1.30;;;1.20;;
5961;SDS011;3007;50.770;0.250;2022-10-15T01:53:36;3.10;;;1.27;;
5961;SDS011;3007;50.770;0.250;2022-10-15T01:56:05;2.97;;;1.40;;
5961;SDS011;3007;50.770;0.250;2022-10-15T02:01:03;3.57;;;1.20;;
5961;SDS011;3007;50.770;0.250;2022-10-15T02:03:41;2.30;;;1.40;;
5961;SDS011;3007;50.770;0.250;2022-10-15T02:06:09;3.40;;;1.20;;
5961;SDS011;3007;50.770;0.250;2022-10-15T02:08:43;1.57;;;1.10;;
5961;SDS011;3007;50.770;0.250;2022-10-15T02:11:18;4.83;;;1.20;;
5961;SDS011;3007;50.770;0.250;2022-10-15T02:13:55;3.80;;;1.20;;
5961;SDS011;3007;50.770;0.250;2022-10-15T02:16:26;1.87;;;1.10;;
5961;SDS011;3007;50.770;0.250;2022-10-15T02:19:05;1.93;;;0.80;;
5961;SDS011;3007;50.770;0.250;2022-10-15T02:21:38;3.40;;;1.03;;
5961;SDS011;3007;50.770;0.250;2022-10-15T02:24:11;1.67;;;1.10;;
5961;SDS011;3007;50.770;0.250;2022-10-15T02:26:40;1.10;;;1.00;;
5961;SDS011;3007;50.770;0.250;2022-10-15T02:29:09;2.87;;;1.00;;
5961;SDS011;3007;50.770;0.250;2022-10-15T02:31:41;1.20;;;0.83;;
5961;SDS011;3007;50.770;0.250;2022-10-15T02:34:12;5.93;;;2.03;;
5961;SDS011;3007;50.770;0.250;2022-10-15T02:36:42;3.87;;;1.40;;
5961;SDS011;3007;50.770;0.250;2022-10-15T02:39:10;4.40;;;1.07;;
5961;SDS011;3007;50.770;0.250;2022-10-15T02:41:40;2.80;;;1.13;;
5961;SDS011;3007;50.770;0.250;2022-10-15T02:44:08;4.03;;;1.47;;
5961;SDS011;3007;50.770;0.250;2022-10-15T02:46:35;6.93;;;3.60;;
5961;SDS011;3007;50.770;0.250;2022-10-15T02:49:02;8.33;;;4.17;;
5961;SDS011;3007;50.770;0.250;2022-10-15T02:51:31;1.90;;;1.40;;
5961;SDS011;3007;50.770;0.250;2022-10-15T02:53:59;1.57;;;1.30;;
5961;SDS011;3007;50.770;0.250;2022-10-15T02:56:26;3.43;;;1.50;;
5961;SDS011;3007;50.770;0.250;2022-10-15T02:58:53;3.80;;;1.80;;
5961;SDS011;3007;50.770;0.250;2022-10-15T03:01:20;2.50;;;1.00;;
5961;SDS011;3007;50.770;0.250;2022-10-15T03:03:47;3.43;;;1.37;;
5961;SDS011;3007;50.770;0.250;2022-10-15T03:06:14;1.73;;;1.00;;
5961;SDS011;3007;50.770;0.250;2022-10-15T03:08:42;2.50;;;1.07;;
5961;SDS011;3007;50.770;0.250;2022-10-15T03:11:09;1.20;;;1.10;;
5961;SDS011;3007;50.770;0.250;2022-10-15T03:13:37;3.40;;;1.90;;
5961;SDS011;3007;50.770;0.250;2022-10-15T03:16:05;4.77;;;2.43;;
5961;SDS011;3007;50.770;0.250;2022-10-15T03:18:33;2.17;;;1.10;;
5961;SDS011;3007;50.770;0.250;2022-10-15T03:21:00;4.20;;;1.07;;
5961;SDS011;3007;50.770;0.250;2022-10-15T03:23:27;2.40;;;1.40;;
5961;SDS011;3007;50.770;0.250;2022-10-15T03:25:56;3.77;;;1.30;;
5961;SDS011;3007;50.770;0.250;2022-10-15T03:28:22;3.73;;;1.63;;
5961;SDS011;3007;50.770;0.250;2022-10-15T03:30:49;4.53;;;1.53;;
5961;SDS011;3007;50.770;0.250;2022-10-15T03:33:16;5.50;;;1.37;;
5961;SDS011;3007;50.770;0.250;2022-10-15T03:35:43;2.17;;;1.13;;
5961;SDS011;3007;50.770;0.250;2022-10-15T03:38:10;3.10;;;1.30;;
5961;SDS011;3007;50.770;0.250;2022-10-15T03:40:37;2.20;;;1.20;;
5961;SDS011;3007;50.770;0.250;2022-10-15T03:43:06;1.50;;;1.13;;
5961;SDS011;3007;50.770;0.250;2022-10-15T03:45:33;3.57;;;1.33;;
5961;SDS011;3007;50.770;0.250;2022-10-15T03:47:59;3.87;;;1.07;;
5961;SDS011;3007;50.770;0.250;2022-10-15T03:50:26;2.30;;;0.80;;
5961;SDS011;3007;50.770;0.250;2022-10-15T03:52:53;2.17;;;1.00;;
5961;SDS011;3007;50.770;0.250;2022-10-15T03:55:20;1.03;;;0.93;;
5961;SDS011;3007;50.770;0.250;2022-10-15T03:57:47;0.83;;;0.80;;
5961;SDS011;3007;50.770;0.250;2022-10-15T04:00:15;2.30;;;0.80;;
5961;SDS011;3007;50.770;0.250;2022-10-15T04:02:42;1.23;;;0.60;;
5961;SDS011;3007;50.770;0.250;2022-10-15T04:05:09;3.90;;;0.70;;
5961;SDS011;3007;50.770;0.250;2022-10-15T04:07:36;0.80;;;0.80;;
5961;SDS011;3007;50.770;0.250;2022-10-15T04:10:03;1.50;;;0.87;;
5961;SDS011;3007;50.770;0.250;2022-10-15T04:12:30;1.83;;;0.90;;
5961;SDS011;3007;50.770;0.250;2022-10-15T04:14:57;1.87;;;1.67;;
5961;SDS011;3007;50.770;0.250;2022-10-15T04:17:25;3.60;;;1.00;;
5961;SDS011;3007;50.770;0.250;2022-10-15T04:19:52;2.50;;;1.30;;
5961;SDS011;3007;50.770;0.250;2022-10-15T04:22:18;1.20;;;1.10;;
5961;SDS011;3007;50.770;0.250;2022-10-15T04:24:45;3.67;;;1.50;;
5961;SDS011;3007;50.770;0.250;2022-10-15T04:27:12;1.90;;;1.03;;
5961;SDS011;3007;50.770;0.250;2022-10-15T04:29:39;2.90;;;1.20;;
5961;SDS011;3007;50.770;0.250;2022-10-15T04:32:06;1.20;;;1.10;;
5961;SDS011;3007;50.770;0.250;2022-10-15T04:34:34;1.70;;;1.17;;
5961;SDS011;3007;50.770;0.250;2022-10-15T04:37:01;3.70;;;1.20;;
5961;SDS011;3007;50.770;0.250;2022-10-15T04:39:28;2.03;;;1.00;;
5961;SDS011;3007;50.770;0.250;2022-10-15T04:41:55;3.50;;;1.10;;
5961;SDS011;3007;50.770;0.250;2022-10-15T04:44:22;2.53;;;0.93;;
5961;SDS011;3007;50.770;0.250;2022-10-15T04:46:48;1.80;;;1.20;;
5961;SDS011;3007;50.770;0.250;2022-10-15T04:49:15;2.90;;;1.43;;
5961;SDS011;3007;50.770;0.250;2022-10-15T04:51:44;1.43;;;1.10;;
5961;SDS011;3007;50.770;0.250;2022-10-15T04:54:10;1.27;;;1.17;;
5961;SDS011;3007;50.770;0.250;2022-10-15T04:56:37;1.40;;;1.30;;
5961;SDS011;3007;50.770;0.250;2022-10-15T04:59:05;1.30;;;1.20;;
5961;SDS011;3007;50.770;0.250;2022-10-15T05:01:32;1.93;;;1.17;;
5961;SDS011;3007;50.770;0.250;2022-10-15T05:04:01;0.97;;;0.97;;
5961;SDS011;3007;50.770;0.250;2022-10-15T05:06:28;1.13;;;0.90;;
5961;SDS011;3007;50.770;0.250;2022-10-15T05:08:59;1.30;;;0.90;;
5961;SDS011;3007;50.770;0.250;2022-10-15T05:11:26;3.33;;;1.13;;
5961;SDS011;3007;50.770;0.250;2022-10-15T05:13:54;1.53;;;1.43;;
5961;SDS011;3007;50.770;0.250;2022-10-15T05:16:22;1.70;;;1.60;;
5961;SDS011;3007;50.770;0.250;2022-10-15T05:18:51;1.80;;;1.50;;
5961;SDS011;3007;50.770;0.250;2022-10-15T05:21:21;1.80;;;1.70;;
5961;SDS011;3007;50.770;0.250;2022-10-15T05:23:48;2.40;;;1.87;;
5961;SDS011;3007;50.770;0.250;2022-10-15T05:26:18;2.03;;;1.83;;
5961;SDS011;3007;50.770;0.250;2022-10-15T05:28:46;2.40;;;2.20;;
5961;SDS011;3007;50.770;0.250;2022-10-15T05:31:14;4.40;;;2.90;;
5961;SDS011;3007;50.770;0.250;2022-10-15T05:33:42;2.50;;;2.30;;
5961;SDS011;3007;50.770;0.250;2022-10-15T05:36:10;1.97;;;1.73;;
5961;SDS011;3007;50.770;0.250;2022-10-15T05:38:41;1.27;;;1.07;;
5961;SDS011;3007;50.770;0.250;2022-10-15T05:41:08;1.37;;;1.20;;
5961;SDS011;3007;50.770;0.250;2022-10-15T05:43:36;1.33;;;0.80;;
5961;SDS011;3007;50.770;0.250;2022-10-15T05:46:03;0.50;;;0.50;;
5961;SDS011;3007;50.770;0.250;2022-10-15T05:48:30;0.70;;;0.60;;
5961;SDS011;3007;50.770;0.250;2022-10-15T05:51:00;0.70;;;0.60;;
5961;SDS011;3007;50.770;0.250;2022-10-15T05:53:28;0.50;;;0.50;;
5961;SDS011;3007;50.770;0.250;2022-10-15T05:55:54;0.53;;;0.53;;
5961;SDS011;3007;50.770;0.250;2022-10-15T05:58:22;0.53;;;0.53;;
5961;SDS011;3007;50.770;0.250;2022-10-15T06:00:53;0.80;;;0.80;;
5961;SDS011;3007;50.770;0.250;2022-10-15T06:03:21;1.80;;;0.70;;
5961;SDS011;3007;50.770;0.250;2022-10-15T06:05:48;1.03;;;0.93;;
5961;SDS011;3007;50.770;0.250;2022-10-15T06:08:15;1.57;;;1.13;;
5961;SDS011;3007;50.770;0.250;2022-10-15T06:10:42;1.93;;;1.10;;
5961;SDS011;3007;50.770;0.250;2022-10-15T06:13:09;1.30;;;1.20;;
5961;SDS011;3007;50.770;0.250;2022-10-15T06:15:37;1.27;;;1.17;;
5961;SDS011;3007;50.770;0.250;2022-10-15T06:18:06;1.10;;;0.90;;
5961;SDS011;3007;50.770;0.250;2022-10-15T06:20:33;0.60;;;0.60;;
5961;SDS011;3007;50.770;0.250;2022-10-15T06:23:02;0.50;;;0.50;;
5961;SDS011;3007;50.770;0.250;2022-10-15T06:25:30;0.63;;;0.63;;
5961;SDS011;3007;50.770;0.250;2022-10-15T06:27:59;3.00;;;0.70;;
5961;SDS011;3007;50.770;0.250;2022-10-15T06:30:27;0.90;;;0.80;;
5961;SDS011;3007;50.770;0.250;2022-10-15T06:32:55;0.70;;;0.70;;
5961;SDS011;3007;50.770;0.250;2022-10-15T06:35:24;0.80;;;0.80;;
5961;SDS011;3007;50.770;0.250;2022-10-15T06:37:54;1.20;;;0.93;;
5961;SDS011;3007;50.770;0.250;2022-10-15T06:40:21;1.47;;;1.20;;
5961;SDS011;3007;50.770;0.250;2022-10-15T06:42:48;2.00;;;0.90;;
5961;SDS011;3007;50.770;0.250;2022-10-15T06:45:15;1.00;;;0.80;;
5961;SDS011;3007;50.770;0.250;2022-10-15T06:47:42;1.20;;;0.80;;
5961;SDS011;3007;50.770;0.250;2022-10-15T06:50:08;1.47;;;0.90;;
5961;SDS011;3007;50.770;0.250;2022-10-15T06:52:37;4.23;;;1.40;;
5961;SDS011;3007;50.770;0.250;2022-10-15T06:55:04;3.63;;;1.37;;
5961;SDS011;3007;50.770;0.250;2022-10-15T06:57:32;5.73;;;1.27;;
5961;SDS011;3007;50.770;0.250;2022-10-15T06:59:59;2.30;;;1.13;;
5961;SDS011;3007;50.770;0.250;2022-10-15T07:02:26;1.47;;;1.13;;
5961;SDS011;3007;50.770;0.250;2022-10-15T07:04:53;4.50;;;1.37;;
5961;SDS011;3007;50.770;0.250;2022-10-15T07:07:20;4.53;;;1.30;;
5961;SDS011;3007;50.770;0.250;2022-10-15T07:09:48;2.33;;;1.27;;
5961;SDS011;3007;50.770;0.250;2022-10-15T07:12:17;3.13;;;0.97;;
5961;SDS011;3007;50.770;0.250;2022-10-15T07:14:46;2.63;;;1.63;;
5961;SDS011;3007;50.770;0.250;2022-10-15T07:17:13;3.87;;;0.83;;
5961;SDS011;3007;50.770;0.250;2022-10-15T07:19:40;2.60;;;1.07;;
5961;SDS011;3007;50.770;0.250;2022-10-15T07:22:06;2.00;;;0.97;;
5961;SDS011;3007;50.770;0.250;2022-10-15T07:24:33;4.80;;;1.10;;
5961;SDS011;3007;50.770;0.250;2022-10-15T07:27:02;4.63;;;1.23;;
5961;SDS011;3007;50.770;0.250;2022-10-15T07:29:29;4.03;;;1.03;;
5961;SDS011;3007;50.770;0.250;2022-10-15T07:31:56;2.03;;;1.20;;
5961;SDS011;3007;50.770;0.250;2022-10-15T07:34:23;5.83;;;1.40;;
5961;SDS011;3007;50.770;0.250;2022-10-15T07:36:50;3.97;;;1.33;;
5961;SDS011;3007;50.770;0.250;2022-10-15T07:39:17;3.83;;;1.30;;
5961;SDS011;3007;50.770;0.250;2022-10-15T07:41:44;7.13;;;1.20;;
5961;SDS011;3007;50.770;0.250;2022-10-15T07:44:12;4.30;;;1.43;;
5961;SDS011;3007;50.770;0.250;2022-10-15T07:46:39;7.33;;;1.40;;
5961;SDS011;3007;50.770;0.250;2022-10-15T07:49:06;3.93;;;1.07;;
5961;SDS011;3007;50.770;0.250;2022-10-15T07:51:33;4.40;;;1.23;;
5961;SDS011;3007;50.770;0.250;2022-10-15T07:54:00;4.70;;;1.23;;
5961;SDS011;3007;50.770;0.250;2022-10-15T07:56:27;4.53;;;1.83;;
5961;SDS011;3007;50.770;0.250;2022-10-15T07:58:54;4.40;;;1.63;;
5961;SDS011;3007;50.770;0.250;2022-10-15T08:01:22;4.50;;;0.93;;
5961;SDS011;3007;50.770;0.250;2022-10-15T08:03:49;4.80;;;1.30;;
5961;SDS011;3007;50.770;0.250;2022-10-15T08:06:16;2.30;;;0.97;;
5961;SDS011;3007;50.770;0.250;2022-10-15T08:08:44;2.70;;;1.10;;
5961;SDS011;3007;50.770;0.250;2022-10-15T08:11:12;9.13;;;1.27;;
5961;SDS011;3007;50.770;0.250;2022-10-15T08:13:41;2.27;;;0.90;;
5961;SDS011;3007;50.770;0.250;2022-10-15T08:16:08;7.47;;;1.17;;
5961;SDS011;3007;50.770;0.250;2022-10-15T08:18:38;2.43;;;1.07;;
5961;SDS011;3007;50.770;0.250;2022-10-15T08:21:05;5.20;;;1.10;;
5961;SDS011;3007;50.770;0.250;2022-10-15T08:23:32;4.73;;;1.03;;
5961;SDS011;3007;50.770;0.250;2022-10-15T08:26:00;4.43;;;1.30;;
5961;SDS011;3007;50.770;0.250;2022-10-15T08:28:27;4.37;;;1.10;;
5961;SDS011;3007;50.770;0.250;2022-10-15T08:30:55;5.07;;;1.47;;
5961;SDS011;3007;50.770;0.250;2022-10-15T08:33:22;4.73;;;1.33;;
5961;SDS011;3007;50.770;0.250;2022-10-15T08:35:51;7.37;;;1.33;;
5961;SDS011;3007;50.770;0.250;2022-10-15T08:38:18;4.20;;;1.10;;
5961;SDS011;3007;50.770;0.250;2022-10-15T08:40:45;5.73;;;1.43;;
5961;SDS011;3007;50.770;0.250;2022-10-15T08:43:16;4.33;;;1.00;;
5961;SDS011;3007;50.770;0.250;2022-10-15T08:45:48;3.50;;;0.80;;
5961;SDS011;3007;50.770;0.250;2022-10-15T08:48:21;2.57;;;0.83;;
5961;SDS011;3007;50.770;0.250;2022-10-15T08:50:56;5.53;;;0.70;;
5961;SDS011;3007;50.770;0.250;2022-10-15T08:53:26;4.73;;;0.90;;
5961;SDS011;3007;50.770;0.250;2022-10-15T08:55:55;3.67;;;1.10;;
5961;SDS011;3007;50.770;0.250;2022-10-15T08:58:27;4.63;;;1.20;;
5961;SDS011;3007;50.770;0.250;2022-10-15T09:01:10;3.00;;;0.67;;
5961;SDS011;3007;50.770;0.250;2022-10-15T09:03:46;3.80;;;1.10;;
5961;SDS011;3007;50.770;0.250;2022-10-15T09:06:20;4.37;;;1.00;;
5961;SDS011;3007;50.770;0.250;2022-10-15T09:08:52;4.10;;;1.00;;
5961;SDS011;3007;50.770;0.250;2022-10-15T09:11:28;2.73;;;0.70;;
5961;SDS011;3007;50.770;0.250;2022-10-15T09:14:01;4.33;;;1.07;;
5961;SDS011;3007;50.770;0.250;2022-10-15T09:16:31;2.83;;;1.13;;
5961;SDS011;3007;50.770;0.250;2022-10-15T09:19:03;9.27;;;1.20;;
5961;SDS011;3007;50.770;0.250;2022-10-15T09:21:38;5.40;;;1.07;;
5961;SDS011;3007;50.770;0.250;2022-10-15T09:24:05;2.93;;;1.00;;
5961;SDS011;3007;50.770;0.250;2022-10-15T09:26:37;4.40;;;1.00;;
5961;SDS011;3007;50.770;0.250;2022-10-15T09:29:17;2.97;;;0.80;;
5961;SDS011;3007;50.770;0.250;2022-10-15T09:31:51;3.30;;;1.23;;
5961;SDS011;3007;50.770;0.250;2022-10-15T09:34:24;3.43;;;0.67;;
5961;SDS011;3007;50.770;0.250;2022-10-15T09:36:59;3.70;;;0.80;;
5961;SDS011;3007;50.770;0.250;2022-10-15T09:39:33;7.30;;;1.00;;
5961;SDS011;3007;50.770;0.250;2022-10-15T09:42:12;3.40;;;1.30;;
5961;SDS011;3007;50.770;0.250;2022-10-15T09:44:47;5.00;;;1.43;;
5961;SDS011;3007;50.770;0.250;2022-10-15T09:47:16;5.57;;;1.20;;
5961;SDS011;3007;50.770;0.250;2022-10-15T09:49:47;4.17;;;1.30;;
5961;SDS011;3007;50.770;0.250;2022-10-15T09:52:18;3.90;;;0.80;;
5961;SDS011;3007;50.770;0.250;2022-10-15T09:54:53;2.33;;;0.80;;
5961;SDS011;3007;50.770;0.250;2022-10-15T09:57:26;4.10;;;1.20;;
5961;SDS011;3007;50.770;0.250;2022-10-15T09:59:56;4.20;;;1.07;;
5961;SDS011;3007;50.770;0.250;2022-10-15T10:02:26;2.93;;;0.70;;
5961;SDS011;3007;50.770;0.250;2022-10-15T10:04:53;3.93;;;0.70;;
5961;SDS011;3007;50.770;0.250;2022-10-15T10:07:29;3.73;;;1.10;;
5961;SDS011;3007;50.770;0.250;2022-10-15T10:09:59;4.93;;;1.00;;
5961;SDS011;3007;50.770;0.250;2022-10-15T10:12:30;5.83;;;0.73;;
5961;SDS011;3007;50.770;0.250;2022-10-15T10:14:59;4.07;;;1.13;;
5961;SDS011;3007;50.770;0.250;2022-10-15T10:17:28;3.97;;;0.90;;
5961;SDS011;3007;50.770;0.250;2022-10-15T10:20:06;2.95;;;0.90;;
5961;SDS011;3007;50.770;0.250;2022-10-15T10:22:45;7.37;;;1.27;;
5961;SDS011;3007;50.770;0.250;2022-10-15T10:25:22;4.13;;;1.00;;
5961;SDS011;3007;50.770;0.250;2022-10-15T10:28:02;6.07;;;1.20;;
5961;SDS011;3007;50.770;0.250;2022-10-15T10:30:32;3.33;;;0.67;;
5961;SDS011;3007;50.770;0.250;2022-10-15T10:33:01;6.43;;;1.03;;
5961;SDS011;3007;50.770;0.250;2022-10-15T10:35:32;6.00;;;1.60;;
5961;SDS011;3007;50.770;0.250;2022-10-15T10:38:17;4.33;;;1.03;;
5961;SDS011;3007;50.770;0.250;2022-10-15T10:40:51;5.93;;;0.80;;
5961;SDS011;3007;50.770;0.250;2022-10-15T10:43:23;5.27;;;0.97;;
5961;SDS011;3007;50.770;0.250;2022-10-15T10:45:52;6.80;;;1.00;;
5961;SDS011;3007;50.770;0.250;2022-10-15T10:48:24;4.60;;;0.70;;
5961;SDS011;3007;50.770;0.250;2022-10-15T10:51:07;5.83;;;0.80;;
5961;SDS011;3007;50.770;0.250;2022-10-15T10:53:48;3.37;;;0.93;;
5961;SDS011;3007;50.770;0.250;2022-10-15T10:56:20;6.25;;;0.93;;
5961;SDS011;3007;50.770;0.250;2022-10-15T10:58:51;4.90;;;0.90;;
5961;SDS011;3007;50.770;0.250;2022-10-15T11:01:25;4.53;;;1.42;;
5961;SDS011;3007;50.770;0.250;2022-10-15T11:03:53;6.63;;;1.33;;
5961;SDS011;3007;50.770;0.250;2022-10-15T11:06:22;3.20;;;1.10;;
5961;SDS011;3007;50.770;0.250;2022-10-15T11:09:14;7.93;;;1.23;;
5961;SDS011;3007;50.770;0.250;2022-10-15T11:11:53;3.53;;;1.00;;
5961;SDS011;3007;50.770;0.250;2022-10-15T11:14:30;3.60;;;1.10;;
5961;SDS011;3007;50.770;0.250;2022-10-15T11:17:06;8.77;;;1.35;;
5961;SDS011;3007;50.770;0.250;2022-10-15T11:19:40;4.00;;;0.90;;
5961;SDS011;3007;50.770;0.250;2022-10-15T11:22:19;7.00;;;1.58;;
5961;SDS011;3007;50.770;0.250;2022-10-15T11:24:58;8.70;;;1.17;;
5961;SDS011;3007;50.770;0.250;2022-10-15T11:27:36;5.75;;;1.63;;
5961;SDS011;3007;50.770;0.250;2022-10-15T11:30:18;2.80;;;0.80;;
5961;SDS011;3007;50.770;0.250;2022-10-15T11:33:08;6.28;;;1.25;;
5961;SDS011;3007;50.770;0.250;2022-10-15T11:35:45;5.85;;;0.93;;
5961;SDS011;3007;50.770;0.250;2022-10-15T11:38:19;6.38;;;0.93;;
5961;SDS011;3007;50.770;0.250;2022-10-15T11:40:58;4.93;;;1.00;;
5961;SDS011;3007;50.770;0.250;2022-10-15T11:43:44;4.53;;;1.10;;
5961;SDS011;3007;50.770;0.250;2022-10-15T11:46:22;5.45;;;0.95;;
5961;SDS011;3007;50.770;0.250;2022-10-15T11:49:03;3.25;;;1.05;;
5961;SDS011;3007;50.770;0.250;2022-10-15T11:51:48;2.65;;;1.08;;
5961;SDS011;3007;50.770;0.250;2022-10-15T11:54:33;6.20;;;0.98;;
5961;SDS011;3007;50.770;0.250;2022-10-15T11:57:04;14.63;;;1.57;;
5961;SDS011;3007;50.770;0.250;2022-10-15T11:59:36;3.60;;;0.93;;
5961;SDS011;3007;50.770;0.250;2022-10-15T12:02:11;10.57;;;1.10;;
5961;SDS011;3007;50.770;0.250;2022-10-15T12:04:42;5.35;;;1.20;;
5961;SDS011;3007;50.770;0.250;2022-10-15T12:07:15;5.43;;;1.23;;
5961;SDS011;3007;50.770;0.250;2022-10-15T12:09:45;5.75;;;1.20;;
5961;SDS011;3007;50.770;0.250;2022-10-15T12:12:20;9.45;;;1.77;;
5961;SDS011;3007;50.770;0.250;2022-10-15T12:14:57;5.93;;;1.13;;
5961;SDS011;3007;50.770;0.250;2022-10-15T12:17:39;6.13;;;1.10;;
5961;SDS011;3007;50.770;0.250;2022-10-15T12:20:13;6.97;;;1.10;;
5961;SDS011;3007;50.770;0.250;2022-10-15T12:22:52;7.82;;;1.38;;
5961;SDS011;3007;50.770;0.250;2022-10-15T12:28:17;5.78;;;1.35;;
5961;SDS011;3007;50.770;0.250;2022-10-15T12:30:53;7.88;;;1.42;;
5961;SDS011;3007;50.770;0.250;2022-10-15T12:33:23;2.65;;;0.70;;
5961;SDS011;3007;50.770;0.250;2022-10-15T12:35:56;4.50;;;0.90;;
5961;SDS011;3007;50.770;0.250;2022-10-15T12:38:26;1.52;;;0.70;;
5961;SDS011;3007;50.770;0.250;2022-10-15T12:40:59;3.80;;;0.85;;
5961;SDS011;3007;50.770;0.250;2022-10-15T12:43:31;3.72;;;0.85;;
5961;SDS011;3007;50.770;0.250;2022-10-15T12:46:01;2.25;;;1.00;;
5961;SDS011;3007;50.770;0.250;2022-10-15T12:48:31;3.25;;;0.88;;
5961;SDS011;3007;50.770;0.250;2022-10-15T12:57:16;2.75;;;0.95;;
5961;SDS011;3007;50.770;0.250;2022-10-15T13:03:07;4.40;;;0.73;;
5961;SDS011;3007;50.770;0.250;2022-10-15T13:05:49;2.53;;;0.67;;
5961;SDS011;3007;50.770;0.250;2022-10-15T13:08:19;3.23;;;0.53;;
5961;SDS011;3007;50.770;0.250;2022-10-15T13:10:49;2.20;;;0.60;;
5961;SDS011;3007;50.770;0.250;2022-10-15T13:13:20;5.23;;;0.83;;
5961;SDS011;3007;50.770;0.250;2022-10-15T13:15:51;1.93;;;0.40;;
5961;SDS011;3007;50.770;0.250;2022-10-15T13:18:23;3.28;;;0.90;;
5961;SDS011;3007;50.770;0.250;2022-10-15T13:20:51;4.03;;;0.97;;
5961;SDS011;3007;50.770;0.250;2022-10-15T13:23:21;5.20;;;0.80;;
5961;SDS011;3007;50.770;0.250;2022-10-15T13:25:52;2.33;;;0.60;;
5961;SDS011;3007;50.770;0.250;2022-10-15T13:28:37;2.45;;;0.73;;
5961;SDS011;3007;50.770;0.250;2022-10-15T13:31:10;1.88;;;0.70;;
5961;SDS011;3007;50.770;0.250;2022-10-15T13:33:43;2.20;;;0.60;;
5961;SDS011;3007;50.770;0.250;2022-10-15T13:36:15;5.47;;;1.05;;
5961;SDS011;3007;50.770;0.250;2022-10-15T13:38:50;6.10;;;1.20;;
5961;SDS011;3007;50.770;0.250;2022-10-15T13:41:28;5.03;;;1.00;;
5961;SDS011;3007;50.770;0.250;2022-10-15T13:43:56;3.58;;;1.05;;
5961;SDS011;3007;50.770;0.250;2022-10-15T13:46:27;4.72;;;0.70;;
5961;SDS011;3007;50.770;0.250;2022-10-15T13:48:55;5.15;;;0.82;;
5961;SDS011;3007;50.770;0.250;2022-10-15T13:51:25;7.07;;;1.02;;
5961;SDS011;3007;50.770;0.250;2022-10-15T13:53:57;5.88;;;1.10;;
5961;SDS011;3007;50.770;0.250;2022-10-15T13:56:26;7.70;;;1.25;;
5961;SDS011;3007;50.770;0.250;2022-10-15T13:58:54;5.35;;;0.90;;
5961;SDS011;3007;50.770;0.250;2022-10-15T14:01:24;4.47;;;0.90;;
5961;SDS011;3007;50.770;0.250;2022-10-15T14:03:53;2.60;;;1.02;;
5961;SDS011;3007;50.770;0.250;2022-10-15T14:06:22;5.05;;;1.08;;
5961;SDS011;3007;50.770;0.250;2022-10-15T14:08:51;5.35;;;1.23;;
5961;SDS011;3007;50.770;0.250;2022-10-15T14:11:19;5.80;;;1.30;;
5961;SDS011;3007;50.770;0.250;2022-10-15T14:13:47;5.50;;;1.63;;
5961;SDS011;3007;50.770;0.250;2022-10-15T14:16:17;7.27;;;1.33;;
5961;SDS011;3007;50.770;0.250;2022-10-15T14:18:47;5.57;;;1.58;;
5961;SDS011;3007;50.770;0.250;2022-10-15T14:21:18;4.05;;;0.90;;
5961;SDS011;3007;50.770;0.250;2022-10-15T14:23:46;7.82;;;1.40;;
5961;SDS011;3007;50.770;0.250;2022-10-15T14:26:14;7.63;;;1.48;;
5961;SDS011;3007;50.770;0.250;2022-10-15T14:28:49;10.55;;;1.70;;
5961;SDS011;3007;50.770;0.250;2022-10-15T14:31:30;9.52;;;1.75;;
5961;SDS011;3007;50.770;0.250;2022-10-15T14:34:02;6.55;;;1.08;;
5961;SDS011;3007;50.770;0.250;2022-10-15T14:36:30;5.72;;;1.25;;
5961;SDS011;3007;50.770;0.250;2022-10-15T14:39:18;9.43;;;1.30;;
5961;SDS011;3007;50.770;0.250;2022-10-15T14:41:56;6.22;;;1.48;;
5961;SDS011;3007;50.770;0.250;2022-10-15T14:44:25;6.70;;;1.40;;
5961;SDS011;3007;50.770;0.250;2022-10-15T14:47:04;5.03;;;1.30;;
5961;SDS011;3007;50.770;0.250;2022-10-15T14:49:35;6.57;;;1.33;;
5961;SDS011;3007;50.770;0.250;2022-10-15T14:52:07;8.52;;;1.55;;
5961;SDS011;3007;50.770;0.250;2022-10-15T14:54:40;9.77;;;1.55;;
5961;SDS011;3007;50.770;0.250;2022-10-15T14:57:13;8.30;;;1.63;;
5961;SDS011;3007;50.770;0.250;2022-10-15T14:59:44;6.50;;;1.40;;
5961;SDS011;3007;50.770;0.250;2022-10-15T15:02:13;10.00;;;1.93;;
5961;SDS011;3007;50.770;0.250;2022-10-15T15:04:42;9.13;;;1.70;;
5961;SDS011;3007;50.770;0.250;2022-10-15T15:07:13;8.25;;;1.48;;
5961;SDS011;3007;50.770;0.250;2022-10-15T15:09:42;7.30;;;1.50;;
5961;SDS011;3007;50.770;0.250;2022-10-15T15:12:19;7.87;;;1.40;;
5961;SDS011;3007;50.770;0.250;2022-10-15T15:14:48;6.77;;;2.20;;
5961;SDS011;3007;50.770;0.250;2022-10-15T15:17:17;11.27;;;1.93;;
5961;SDS011;3007;50.770;0.250;2022-10-15T15:19:46;12.17;;;1.53;;
5961;SDS011;3007;50.770;0.250;2022-10-15T15:22:15;8.13;;;1.73;;
5961;SDS011;3007;50.770;0.250;2022-10-15T15:24:48;9.38;;;1.60;;
5961;SDS011;3007;50.770;0.250;2022-10-15T15:27:22;7.97;;;1.70;;
5961;SDS011;3007;50.770;0.250;2022-10-15T15:29:50;10.93;;;1.83;;
5961;SDS011;3007;50.770;0.250;2022-10-15T15:32:19;8.70;;;2.07;;
5961;SDS011;3007;50.770;0.250;2022-10-15T15:34:46;4.95;;;1.42;;
5961;SDS011;3007;50.770;0.250;2022-10-15T15:37:17;8.10;;;2.08;;
5961;SDS011;3007;50.770;0.250;2022-10-15T15:39:49;6.93;;;1.48;;
5961;SDS011;3007;50.770;0.250;2022-10-15T15:42:19;6.43;;;1.57;;
5961;SDS011;3007;50.770;0.250;2022-10-15T15:44:48;10.98;;;2.00;;
5961;SDS011;3007;50.770;0.250;2022-10-15T15:47:18;10.13;;;1.90;;
5961;SDS011;3007;50.770;0.250;2022-10-15T15:49:47;11.47;;;2.23;;
5961;SDS011;3007;50.770;0.250;2022-10-15T15:52:17;10.80;;;1.97;;
5961;SDS011;3007;50.770;0.250;2022-10-15T15:54:44;8.17;;;1.87;;